Terminal Aerodrome Forecast
Issued by NWS Paducah, KY

Home | Current Version | Previous Version | Text Only | Print | Product List | Glossary Off
Versions: 1 2 3 4 5 6 7 8 9 10 11 12 13

000
FTUS43 KPAH 151700
TAFEVV
TAF
KEVV 151720Z 1518/1618 21005KT P6SM SCT070 BKN150
      TEMPO 1518/1521 BKN070
     FM160100 23004KT P6SM VCSH SCT025 BKN050
     FM160300 33005KT P6SM SCT008 OVC012
     FM160600 34006KT P6SM SCT013 OVC020
      TEMPO 1606/1609 BKN013
     FM161500 01006KT P6SM SCT025=

USA.gov is the U.S. government's official web portal to all federal, state and local government web resources and services.